Time;durP1;ratioP1;P1;durP2;ratioP2;P2;SDS_P1;SDS_P2;PMS_P1;PMS_P2;Temp;Humidity;BMP_temperature;BMP_pressure;BME280_temperature;BME280_humidity;BME280_pressure;Samples;Min_cycle;Max_cycle;Signal;HPM_P1;HPM_P2
2021/06/02 00:00:02;;;;;;;;;;;;;;;9.62;69.32;100989.31;104554;1095;76744;-62
2021/06/02 00:02:07;;;;;;;;;;;;;;;9.62;69.33;100993.86;104545;1096;77451;-58
2021/06/02 00:04:13;;;;;;;;;;;;;;;9.59;69.42;100997.73;104503;1096;78151;-58
2021/06/02 00:06:19;;;;;;;;;;;;;;;9.58;69.58;100990.67;104532;1096;78159;-61
2021/06/02 00:08:25;;;;;;;;;;;;;;;9.53;69.35;100992.19;104522;1096;77940;-61
2021/06/02 00:10:31;;;;;;;;;;;;;;;9.44;69.61;100985.95;104517;1096;77118;-61
2021/06/02 00:12:37;;;;;;;;;;;;;;;9.41;69.52;100992.52;104597;1096;76968;-58
2021/06/02 00:14:42;;;;;;;;;;;;;;;9.38;69.51;100989.30;104525;1096;77424;-58
2021/06/02 00:16:47;;;;;;;;;;;;;;;9.40;70.10;100987.28;104547;1096;77594;-57
2021/06/02 00:18:53;;;;;;;;;;;;;;;9.39;69.96;100985.61;104550;1096;76736;-57
2021/06/02 00:21:01;;;;;;;;;;;;;;;9.39;69.91;100981.04;104539;1096;79609;-58
2021/06/02 00:23:06;;;;;;;;;;;;;;;9.32;70.54;100980.03;104523;1096;78196;-58
2021/06/02 00:25:13;;;;;;;;;;;;;;;9.30;70.20;100992.00;104535;1094;77442;-58
2021/06/02 00:27:18;;;;;;;;;;;;;;;9.25;70.41;100991.66;104548;1096;77111;-62
2021/06/02 00:29:26;;;;;;;;;;;;;;;9.22;70.69;100994.69;104548;1096;78308;-62
2021/06/02 00:31:38;;;;;;;;;;;;;;;9.22;70.79;100994.69;104572;1095;77065;-58
2021/06/02 00:33:43;;;;;;;;;;;;;;;9.22;70.96;101000.08;104531;1096;77565;-58
2021/06/02 00:35:50;;;;;;;;;;;;;;;9.20;70.88;101002.92;104525;1096;77969;-62
2021/06/02 00:37:55;;;;;;;;;;;;;;;9.19;70.98;101003.09;104545;1094;78491;-62
2021/06/02 00:40:01;;;;;;;;;;;;;;;9.19;70.77;101006.64;104539;1095;77448;-63
2021/06/02 00:42:07;;;;;;;;;;;;;;;9.12;70.81;101004.78;104568;1096;78588;-59
2021/06/02 00:44:14;;;;;;;;;;;;;;;9.10;70.44;101001.38;104561;1096;78481;-58
2021/06/02 00:46:22;;;;;;;;;;;;;;;9.04;70.75;101004.77;104549;1096;78513;-59
2021/06/02 00:48:27;;;;;;;;;;;;;;;9.00;71.23;101006.09;104541;1096;76763;-59
2021/06/02 00:50:32;;;;;;;;;;;;;;;8.97;71.21;100998.33;104530;1096;78225;-58
2021/06/02 00:52:41;;;;;;;;;;;;;;;8.90;71.35;100996.28;104552;1096;77537;-62
2021/06/02 00:54:46;;;;;;;;;;;;;;;8.84;71.21;100999.63;104544;1096;77176;-62
2021/06/02 00:56:54;;;;;;;;;;;;;;;8.79;71.56;101006.51;104548;1094;76975;-62
2021/06/02 00:59:00;;;;;;;;;;;;;;;8.74;71.48;101008.85;104495;1096;77797;-62
2021/06/02 01:01:07;;;;;;;;;;;;;;;8.65;71.69;101010.66;104517;1094;76744;-63
2021/06/02 01:03:12;;;;;;;;;;;;;;;8.61;71.49;101012.02;104466;1096;78435;-62
2021/06/02 01:05:20;;;;;;;;;;;;;;;8.61;71.90;101008.47;104558;1096;77288;-62
2021/06/02 01:07:26;;;;;;;;;;;;;;;8.58;71.84;101008.78;104546;1096;76694;-59
2021/06/02 01:09:33;;;;;;;;;;;;;;;8.56;71.75;101014.35;104501;1096;77803;-59
2021/06/02 01:11:39;;;;;;;;;;;;;;;8.56;72.01;101014.35;104821;1093;77068;-60
2021/06/02 01:13:44;;;;;;;;;;;;;;;8.55;71.81;101011.80;104831;1093;77273;-60
2021/06/02 01:15:51;;;;;;;;;;;;;;;8.55;71.91;101015.34;104810;1093;78314;-61
2021/06/02 01:17:56;;;;;;;;;;;;;;;8.52;71.95;101021.05;104786;1093;77576;-59
2021/06/02 01:20:04;;;;;;;;;;;;;;;8.50;72.07;101016.83;104848;1093;77352;-58
2021/06/02 01:22:10;;;;;;;;;;;;;;;8.49;71.86;101028.63;104847;1093;76771;-62
2021/06/02 01:24:16;;;;;;;;;;;;;;;8.53;72.28;101025.44;104811;1093;78301;-62
2021/06/02 01:26:21;;;;;;;;;;;;;;;8.58;72.13;101025.80;104835;1093;78363;-62
2021/06/02 01:28:26;;;;;;;;;;;;;;;8.59;72.20;101024.80;104814;1093;77965;-62
2021/06/02 01:30:32;;;;;;;;;;;;;;;8.61;72.05;101030.02;104824;1093;77507;-62
2021/06/02 01:32:58;;;;;;;;;;;;;;;8.61;72.07;101038.09;104845;1093;78497;-59
2021/06/02 01:35:40;;;;;;;;;;;;;;;8.61;71.92;101041.64;104842;1093;77723;-59
2021/06/02 01:38:15;;;;;;;;;;;;;;;8.68;71.96;101033.77;105170;1093;78266;-59
2021/06/02 01:40:38;;;;;;;;;;;;;;;8.64;72.07;101040.47;104758;1093;78380;-59
2021/06/02 01:42:54;;;;;;;;;;;;;;;8.60;71.87;101042.63;104801;1093;76742;-61
2021/06/02 01:45:30;;;;;;;;;;;;;;;8.57;71.72;101036.74;104789;1093;77725;-64
2021/06/02 01:48:00;;;;;;;;;;;;;;;8.54;71.83;101039.75;104849;1093;78387;-59
2021/06/02 01:50:20;;;;;;;;;;;;;;;8.52;72.08;101031.82;104811;1093;76494;-59
2021/06/02 01:52:58;;;;;;;;;;;;;;;8.50;71.97;101035.67;104824;1093;78649;-63
2021/06/02 01:55:35;;;;;;;;;;;;;;;8.47;72.27;101036.84;104704;1093;77515;-63
2021/06/02 01:58:08;;;;;;;;;;;;;;;8.47;72.28;101044.92;104821;1093;78471;-59
2021/06/02 02:00:43;;;;;;;;;;;;;;;8.57;71.99;101037.56;104777;1093;77835;-59
2021/06/02 02:03:30;;;;;;;;;;;;;;;8.60;72.53;101045.32;104840;1092;77099;-59
2021/06/02 02:06:13;;;;;;;;;;;;;;;8.56;72.10;101043.97;104515;1095;77231;-59
2021/06/02 02:08:44;;;;;;;;;;;;;;;8.55;72.40;101049.50;104816;1093;76771;-59
2021/06/02 02:10:51;;;;;;;;;;;;;;;8.58;72.40;101050.03;104819;1093;77930;-60
2021/06/02 02:13:16;;;;;;;;;;;;;;;8.59;72.29;101054.42;104835;1093;77330;-59
2021/06/02 02:15:26;;;;;;;;;;;;;;;8.61;72.49;101054.25;104842;1093;77981;-59
2021/06/02 02:18:03;;;;;;;;;;;;;;;8.63;72.59;101054.92;104802;1093;78165;-63
2021/06/02 02:20:18;;;;;;;;;;;;;;;8.67;72.55;101056.30;104813;1093;78157;-63
2021/06/02 02:22:33;;;;;;;;;;;;;;;8.70;72.42;101058.68;104824;1093;79958;-63
2021/06/02 02:24:48;;;;;;;;;;;;;;;8.71;72.73;101063.89;104844;1092;77368;-63
2021/06/02 02:26:59;;;;;;;;;;;;;;;8.73;72.42;101059.21;104689;1093;77696;-63
2021/06/02 02:29:19;;;;;;;;;;;;;;;8.74;72.50;101057.34;104832;1093;76504;-63
2021/06/02 02:31:44;;;;;;;;;;;;;;;8.74;72.65;101066.27;104809;1093;77643;-59
2021/06/02 02:33:56;;;;;;;;;;;;;;;8.78;72.75;101056.02;104821;1093;77708;-59
2021/06/02 02:36:09;;;;;;;;;;;;;;;8.90;72.49;101060.09;104817;1093;77145;-59
2021/06/02 02:38:32;;;;;;;;;;;;;;;8.96;72.83;101070.23;104848;1093;78019;-59
2021/06/02 02:40:58;;;;;;;;;;;;;;;9.06;72.48;101065.58;104828;1093;78193;-59
2021/06/02 02:43:11;;;;;;;;;;;;;;;9.16;72.39;101071.66;104810;1093;76774;-58
2021/06/02 02:45:24;;;;;;;;;;;;;;;9.20;72.21;101069.49;104824;1093;77152;-58
2021/06/02 02:47:36;;;;;;;;;;;;;;;9.24;72.50;101068.14;104845;1093;77734;-59
2021/06/02 02:49:52;;;;;;;;;;;;;;;9.24;72.39;101076.23;104838;1093;78116;-59
2021/06/02 02:52:08;;;;;;;;;;;;;;;9.33;72.53;101073.41;104846;1093;78208;-59
2021/06/02 02:54:22;;;;;;;;;;;;;;;9.44;72.58;101075.79;104798;1093;79399;-58
2021/06/02 02:56:45;;;;;;;;;;;;;;;9.57;72.27;101077.14;104832;1093;78474;-58
2021/06/02 02:59:00;;;;;;;;;;;;;;;9.62;72.32;101064.84;104818;1093;78123;-58
2021/06/02 03:01:09;;;;;;;;;;;;;;;9.64;72.21;101080.88;104830;1093;76773;-62
2021/06/02 03:03:20;;;;;;;;;;;;;;;9.60;72.20;101068.72;104803;1093;77354;-63
2021/06/02 03:05:27;;;;;;;;;;;;;;;9.56;72.42;101078.98;104808;1092;77620;-63
2021/06/02 03:07:35;;;;;;;;;;;;;;;9.61;72.18;101081.20;104829;1093;77400;-59
2021/06/02 03:09:46;;;;;;;;;;;;;;;9.66;72.53;101078.85;104830;1093;78064;-59
2021/06/02 03:12:01;;;;;;;;;;;;;;;9.71;72.59;101076.48;104849;1093;77433;-59
2021/06/02 03:14:16;;;;;;;;;;;;;;;9.80;72.50;101081.74;104852;1093;77480;-59
2021/06/02 03:16:31;;;;;;;;;;;;;;;9.90;72.56;101078.86;104852;1093;76737;-59
2021/06/02 03:18:43;;;;;;;;;;;;;;;10.04;72.63;101078.19;104812;1093;77948;-59
2021/06/02 03:20:59;;;;;;;;;;;;;;;10.21;72.56;101081.76;104860;1093;78097;-61
2021/06/02 03:23:19;;;;;;;;;;;;;;;10.35;72.53;101084.63;104811;1092;76779;-59
2021/06/02 03:25:27;;;;;;;;;;;;;;;10.43;72.36;101081.05;104797;1093;78332;-59
2021/06/02 03:27:36;;;;;;;;;;;;;;;10.57;72.52;101080.36;104847;1093;76582;-59
2021/06/02 03:29:52;;;;;;;;;;;;;;;10.93;72.15;101069.94;104817;1093;76773;-59
2021/06/02 03:32:09;;;;;;;;;;;;;;;11.74;72.42;101079.30;104821;1093;77944;-59
2021/06/02 03:34:23;;;;;;;;;;;;;;;13.16;71.13;101080.08;104816;1093;77850;-59
2021/06/02 03:36:36;;;;;;;;;;;;;;;13.94;69.44;101082.00;104860;1093;76976;-63
2021/06/02 03:39:00;;;;;;;;;;;;;;;14.56;68.57;101082.12;104861;1092;77413;-64
2021/06/02 03:41:09;;;;;;;;;;;;;;;15.34;67.17;101090.73;104848;1093;78424;-65
2021/06/02 03:43:22;;;;;;;;;;;;;;;15.89;66.27;101091.55;104825;1093;78305;-63
2021/06/02 03:45:34;;;;;;;;;;;;;;;16.59;65.57;101080.05;104826;1093;77362;-64
2021/06/02 03:47:46;;;;;;;;;;;;;;;17.06;65.01;101089.81;104559;1092;77675;-64
2021/06/02 03:50:05;;;;;;;;;;;;;;;18.20;64.03;101090.70;104822;1093;77236;-64
2021/06/02 03:52:20;;;;;;;;;;;;;;;19.31;61.89;101088.78;104859;1093;77602;-59
2021/06/02 03:54:34;;;;;;;;;;;;;;;20.37;59.87;101091.72;104807;1093;77470;-59
2021/06/02 03:57:11;;;;;;;;;;;;;;;21.29;57.33;101092.79;104850;1092;78276;-64
2021/06/02 03:59:25;;;;;;;;;;;;;;;22.16;54.95;101092.33;104789;1093;78364;-64
2021/06/02 04:01:37;;;;;;;;;;;;;;;23.14;51.78;101086.16;104845;1092;78210;-64
2021/06/02 04:04:05;;;;;;;;;;;;;;;23.58;50.33;101081.50;104701;1092;77121;-64
2021/06/02 04:06:19;;;;;;;;;;;;;;;24.14;48.66;101087.64;104809;1093;77129;-64
2021/06/02 04:08:39;;;;;;;;;;;;;;;24.39;47.01;101088.68;104827;1093;76939;-64
2021/06/02 04:11:12;;;;;;;;;;;;;;;24.84;45.60;101093.75;104839;1093;78269;-64
2021/06/02 04:13:28;;;;;;;;;;;;;;;25.40;42.84;101088.53;104861;1093;77966;-58
2021/06/02 04:15:38;;;;;;;;;;;;;;;25.49;42.41;101089.71;104808;1093;76547;-59
2021/06/02 04:17:51;;;;;;;;;;;;;;;25.72;41.17;101091.98;104706;1093;78216;-65
2021/06/02 04:19:56;;;;;;;;;;;;;;;26.25;40.24;101099.05;104827;1093;78379;-64
2021/06/02 04:22:05;;;;;;;;;;;;;;;26.74;39.12;101100.14;104730;1093;76727;-58
2021/06/02 04:24:14;;;;;;;;;;;;;;;26.73;38.88;101098.47;104830;1092;78327;-59
2021/06/02 04:26:19;;;;;;;;;;;;;;;26.81;38.55;101105.44;104831;1093;78209;-59
2021/06/02 04:28:24;;;;;;;;;;;;;;;26.85;37.10;101100.98;104813;1093;78382;-59
2021/06/02 04:30:32;;;;;;;;;;;;;;;26.95;36.54;101100.95;104815;1093;78296;-59
2021/06/02 04:32:42;;;;;;;;;;;;;;;27.06;36.31;101107.33;104828;1093;76578;-65
2021/06/02 04:34:48;;;;;;;;;;;;;;;26.93;36.24;101115.11;104828;1091;76919;-64
2021/06/02 04:36:54;;;;;;;;;;;;;;;26.56;36.21;101116.52;104811;1093;77460;-58
2021/06/02 04:39:01;;;;;;;;;;;;;;;27.23;35.95;101114.20;104839;1093;77968;-61
2021/06/02 04:41:08;;;;;;;;;;;;;;;27.62;34.62;101121.86;104823;1093;77110;-64
2021/06/02 04:43:16;;;;;;;;;;;;;;;28.12;33.85;101118.00;104849;1093;77072;-65
2021/06/02 04:45:25;;;;;;;;;;;;;;;28.67;33.22;101131.50;104802;1093;77142;-64
2021/06/02 04:47:31;;;;;;;;;;;;;;;28.84;32.72;101131.06;104831;1093;77161;-67
2021/06/02 04:49:45;;;;;;;;;;;;;;;29.31;32.01;101125.56;104797;1093;78500;-65
2021/06/02 04:52:12;;;;;;;;;;;;;;;29.39;31.67;101130.51;104824;1093;77011;-59
2021/06/02 04:54:42;;;;;;;;;;;;;;;29.24;31.33;101130.67;104822;1093;76617;-58
2021/06/02 04:57:24;;;;;;;;;;;;;;;29.72;31.28;101139.84;104834;1093;78363;-62
2021/06/02 04:59:55;;;;;;;;;;;;;;;29.49;30.13;101137.89;104813;1092;77619;-60
2021/06/02 05:02:38;;;;;;;;;;;;;;;29.74;29.82;101141.20;104794;1093;78198;-60
2021/06/02 05:05:22;;;;;;;;;;;;;;;29.81;29.22;101154.77;104716;1093;78138;-64
2021/06/02 05:08:02;;;;;;;;;;;;;;;28.24;29.12;101152.63;104462;1096;77793;-64
2021/06/02 05:10:41;;;;;;;;;;;;;;;26.27;30.34;101155.00;104466;1096;76977;-66
2021/06/02 05:13:21;;;;;;;;;;;;;;;24.73;32.17;101155.55;104454;1096;77335;-67
2021/06/02 05:16:16;;;;;;;;;;;;;;;23.59;33.24;101167.86;104530;1093;78069;-67
2021/06/02 05:18:59;;;;;;;;;;;;;;;22.43;34.64;101166.84;104801;1093;77183;-67
2021/06/02 05:22:06;;;;;;;;;;;;;;;21.41;36.30;101170.55;104833;1093;77441;-67
2021/06/02 05:24:39;;;;;;;;;;;;;;;20.72;37.64;101179.60;104400;1095;77983;-67
2021/06/02 05:27:30;;;;;;;;;;;;;;;20.51;38.37;101179.11;104489;1096;77336;-66
2021/06/02 05:30:09;;;;;;;;;;;;;;;20.08;39.31;101189.41;104690;1093;77021;-65
2021/06/02 05:32:42;;;;;;;;;;;;;;;19.54;40.46;101189.49;104833;1093;77572;-65
2021/06/02 05:35:15;;;;;;;;;;;;;;;19.34;41.59;101181.45;104818;1093;77670;-66
2021/06/02 05:38:00;;;;;;;;;;;;;;;19.47;41.70;101194.22;104827;1092;76716;-63
2021/06/02 05:40:23;;;;;;;;;;;;;;;19.62;41.86;101195.51;104568;1093;77936;-60
2021/06/02 05:42:51;;;;;;;;;;;;;;;19.48;42.07;101206.84;104864;1093;78446;-64
2021/06/02 05:45:21;;;;;;;;;;;;;;;19.32;42.24;101202.77;104818;1093;78259;-65
2021/06/02 05:47:45;;;;;;;;;;;;;;;19.30;42.61;101208.50;104855;1092;77244;-59
2021/06/02 05:50:24;;;;;;;;;;;;;;;19.20;42.53;101202.68;104801;1093;78118;-59
2021/06/02 05:53:05;;;;;;;;;;;;;;;18.95;42.75;101212.00;104497;1093;77960;-64
2021/06/02 05:55:25;;;;;;;;;;;;;;;18.70;43.36;101209.27;104798;1092;79563;-64
2021/06/02 05:58:06;;;;;;;;;;;;;;;18.85;43.55;101205.13;104800;1093;78203;-60
2021/06/02 06:00:43;;;;;;;;;;;;;;;18.85;43.78;101202.39;104840;1093;76693;-58
2021/06/02 06:03:32;;;;;;;;;;;;;;;19.04;43.81;101210.64;104553;1093;77992;-63
2021/06/02 06:05:53;;;;;;;;;;;;;;;19.02;43.86;101199.92;104846;1093;77483;-64
2021/06/02 06:08:36;;;;;;;;;;;;;;;19.06;43.91;101198.42;104831;1093;77614;-63
2021/06/02 06:11:09;;;;;;;;;;;;;;;18.99;43.83;101211.32;104819;1093;77760;-65
2021/06/02 06:13:48;;;;;;;;;;;;;;;19.00;43.56;101212.16;104828;1093;77534;-63
2021/06/02 06:16:13;;;;;;;;;;;;;;;19.04;43.92;101216.11;104856;1093;77636;-59
2021/06/02 06:18:45;;;;;;;;;;;;;;;19.06;43.64;101209.38;104812;1093;77431;-58
2021/06/02 06:21:15;;;;;;;;;;;;;;;19.11;43.66;101216.91;104822;1092;77529;-61
2021/06/02 06:23:34;;;;;;;;;;;;;;;19.07;43.70;101216.52;104818;1093;77478;-59
2021/06/02 06:25:48;;;;;;;;;;;;;;;18.99;43.90;101211.32;104828;1092;76644;-59
2021/06/02 06:27:56;;;;;;;;;;;;;;;19.04;43.94;101214.22;104812;1093;78049;-63
2021/06/02 06:30:06;;;;;;;;;;;;;;;19.12;43.94;101213.08;104546;1093;78268;-63
2021/06/02 06:32:11;;;;;;;;;;;;;;;19.26;43.81;101210.00;104816;1093;77950;-60
2021/06/02 06:34:19;;;;;;;;;;;;;;;19.50;43.75;101221.18;104818;1092;78362;-60
2021/06/02 06:36:25;;;;;;;;;;;;;;;19.67;43.75;101212.10;104818;1093;76577;-65
2021/06/02 06:38:45;;;;;;;;;;;;;;;20.17;42.93;101220.11;104820;1093;77824;-62
2021/06/02 06:40:53;;;;;;;;;;;;;;;20.49;42.26;101214.17;104834;1093;78523;-60
2021/06/02 06:42:59;;;;;;;;;;;;;;;20.57;42.01;101211.09;104803;1093;78265;-62
2021/06/02 06:45:08;;;;;;;;;;;;;;;20.75;41.72;101212.08;104820;1093;77358;-62
2021/06/02 06:47:14;;;;;;;;;;;;;;;21.03;41.42;101215.84;104565;1093;77032;-62
2021/06/02 06:49:21;;;;;;;;;;;;;;;21.29;41.42;101209.03;104829;1093;77668;-63
2021/06/02 06:51:29;;;;;;;;;;;;;;;21.45;40.70;101211.05;104835;1093;77212;-59
2021/06/02 06:53:34;;;;;;;;;;;;;;;21.64;40.17;101218.11;104837;1093;78260;-59
2021/06/02 06:55:40;;;;;;;;;;;;;;;22.30;40.59;101212.03;104813;1093;77159;-59
2021/06/02 06:57:47;;;;;;;;;;;;;;;23.46;38.83;101219.54;104803;1093;76863;-59
2021/06/02 06:59:53;;;;;;;;;;;;;;;23.49;37.30;101219.03;104816;1093;77977;-58
2021/06/02 07:01:58;;;;;;;;;;;;;;;23.35;36.64;101216.84;104849;1093;77184;-58
2021/06/02 07:04:06;;;;;;;;;;;;;;;23.19;37.21;101225.98;104827;1093;76848;-58
2021/06/02 07:06:12;;;;;;;;;;;;;;;23.24;37.73;101232.41;104841;1093;77901;-63
2021/06/02 07:08:17;;;;;;;;;;;;;;;23.35;36.76;101231.48;104813;1093;77445;-62
2021/06/02 07:10:23;;;;;;;;;;;;;;;23.84;37.14;101224.18;104814;1093;77580;-62
2021/06/02 07:12:29;;;;;;;;;;;;;;;25.05;36.88;101219.96;104778;1092;76903;-59
2021/06/02 07:14:37;;;;;;;;;;;;;;;27.01;34.37;101224.65;104809;1093;77824;-58
2021/06/02 07:16:45;;;;;;;;;;;;;;;28.75;33.44;101221.81;104806;1093;78383;-62
2021/06/02 07:18:51;;;;;;;;;;;;;;;30.15;30.54;101225.11;104817;1093;77076;-62
2021/06/02 07:20:59;;;;;;;;;;;;;;;30.63;29.75;101223.02;104793;1093;77888;-62
2021/06/02 07:23:08;;;;;;;;;;;;;;;31.07;28.52;101219.00;104805;1093;78086;-63
2021/06/02 07:25:16;;;;;;;;;;;;;;;31.72;27.63;101219.73;104826;1093;76912;-64
2021/06/02 07:27:22;;;;;;;;;;;;;;;32.42;25.30;101220.17;104826;1093;78061;-60
2021/06/02 07:29:27;;;;;;;;;;;;;;;32.66;25.07;101220.77;104809;1093;77118;-60
2021/06/02 07:31:33;;;;;;;;;;;;;;;32.94;23.48;101225.08;104830;1093;76825;-58
2021/06/02 07:33:38;;;;;;;;;;;;;;;33.27;24.04;101230.45;104835;1093;77423;-57
2021/06/02 07:35:49;;;;;;;;;;;;;;;32.54;22.13;101228.89;104809;1093;77036;-58
2021/06/02 07:37:54;;;;;;;;;;;;;;;31.20;23.01;101232.16;104813;1093;77798;-59
2021/06/02 07:40:00;;;;;;;;;;;;;;;30.70;22.58;101231.86;104797;1093;77512;-59
2021/06/02 07:42:09;;;;;;;;;;;;;;;29.47;23.53;101230.09;104832;1093;79447;-59
2021/06/02 07:44:14;;;;;;;;;;;;;;;29.37;23.70;101224.61;104780;1093;76932;-62
2021/06/02 07:46:19;;;;;;;;;;;;;;;28.71;23.46;101226.28;104829;1093;78140;-64
2021/06/02 07:48:25;;;;;;;;;;;;;;;28.51;24.20;101224.47;104801;1093;77938;-65
2021/06/02 07:50:30;;;;;;;;;;;;;;;28.44;24.22;101224.78;104704;1092;78090;-63
2021/06/02 07:52:35;;;;;;;;;;;;;;;28.51;24.82;101236.39;104846;1091;77084;-63
2021/06/02 07:54:40;;;;;;;;;;;;;;;28.21;24.21;101225.46;104781;1091;77504;-61
2021/06/02 07:56:49;;;;;;;;;;;;;;;27.96;24.62;101233.91;104831;1092;77036;-60
2021/06/02 07:58:54;;;;;;;;;;;;;;;27.60;24.31;101233.20;104813;1093;77751;-61
2021/06/02 08:01:04;;;;;;;;;;;;;;;27.43;24.68;101239.07;104815;1093;77900;-59
2021/06/02 08:03:09;;;;;;;;;;;;;;;27.77;24.69;101225.35;104816;1091;78438;-60
2021/06/02 08:05:17;;;;;;;;;;;;;;;28.94;25.11;101236.68;104827;1092;78521;-60
2021/06/02 08:07:23;;;;;;;;;;;;;;;29.76;24.45;101225.29;104521;1092;76989;-58
2021/06/02 08:09:28;;;;;;;;;;;;;;;30.86;23.77;101227.67;104832;1093;78669;-60
2021/06/02 08:11:33;;;;;;;;;;;;;;;31.64;23.76;101226.05;104827;1093;77904;-58
2021/06/02 08:13:41;;;;;;;;;;;;;;;31.91;22.87;101234.44;104837;1093;78042;-61
2021/06/02 08:15:50;;;;;;;;;;;;;;;32.26;22.80;101221.67;104543;1092;77656;-59
2021/06/02 08:17:55;;;;;;;;;;;;;;;31.86;22.37;101234.55;104818;1093;78292;-67
2021/06/02 08:20:01;;;;;;;;;;;;;;;30.96;21.87;101226.70;104847;1093;77544;-67
2021/06/02 08:22:09;;;;;;;;;;;;;;;29.78;22.16;101228.60;104806;1093;78402;-66
2021/06/02 08:24:14;;;;;;;;;;;;;;;28.56;23.42;101236.39;104797;1093;77391;-68
2021/06/02 08:26:20;;;;;;;;;;;;;;;27.82;24.19;101238.41;104818;1093;77426;-60
2021/06/02 08:28:25;;;;;;;;;;;;;;;27.39;24.80;101243.47;104843;1093;78753;-60
2021/06/02 08:30:31;;;;;;;;;;;;;;;26.97;25.55;101251.30;104790;1093;77821;-59
2021/06/02 08:32:36;;;;;;;;;;;;;;;27.56;25.26;101239.58;104797;1093;77037;-69
2021/06/02 08:34:42;;;;;;;;;;;;;;;27.32;25.22;101242.94;104790;1093;77582;-70
2021/06/02 08:36:48;;;;;;;;;;;;;;;27.16;25.80;101235.75;104817;1093;77808;-65
2021/06/02 08:38:53;;;;;;;;;;;;;;;27.01;26.97;101243.23;104841;1093;76752;-61
2021/06/02 08:40:59;;;;;;;;;;;;;;;26.71;26.38;101238.47;104595;1092;78001;-62
2021/06/02 08:43:07;;;;;;;;;;;;;;;26.59;26.66;101235.16;104819;1093;77324;-58
2021/06/02 08:45:15;;;;;;;;;;;;;;;26.36;26.21;101240.09;104800;1092;77586;-58
2021/06/02 08:47:21;;;;;;;;;;;;;;;26.12;27.31;101241.63;104557;1093;78452;-59
2021/06/02 08:49:26;;;;;;;;;;;;;;;25.83;27.36;101234.88;104802;1093;77711;-58
2021/06/02 08:51:35;;;;;;;;;;;;;;;25.82;27.61;101232.38;104815;1093;77461;-64
2021/06/02 08:53:40;;;;;;;;;;;;;;;25.43;27.43;101241.00;104810;1093;78662;-64
2021/06/02 08:55:48;;;;;;;;;;;;;;;25.39;27.87;101239.02;104830;1093;77182;-64
2021/06/02 08:57:54;;;;;;;;;;;;;;;25.10;26.37;101244.08;104809;1093;76895;-65
2021/06/02 08:59:59;;;;;;;;;;;;;;;24.93;26.48;101233.16;104529;1093;77714;-64
2021/06/02 09:02:05;;;;;;;;;;;;;;;24.75;27.09;101236.27;104839;1093;78647;-64
2021/06/02 09:04:11;;;;;;;;;;;;;;;24.65;27.01;101231.48;104837;1093;77252;-64
2021/06/02 09:06:17;;;;;;;;;;;;;;;24.68;27.54;101246.70;104823;1093;78246;-64
2021/06/02 09:08:24;;;;;;;;;;;;;;;24.55;26.85;101236.09;104787;1092;76737;-64
2021/06/02 09:10:39;;;;;;;;;;;;;;;24.36;27.10;101237.55;104831;1093;77707;-64
2021/06/02 09:12:45;;;;;;;;;;;;;;;24.16;27.15;101235.39;104871;1093;77671;-60
2021/06/02 09:15:02;;;;;;;;;;;;;;;23.94;26.98;101232.61;104817;1093;77973;-58
2021/06/02 09:17:08;;;;;;;;;;;;;;;24.02;27.55;101239.59;104809;1093;77474;-59
2021/06/02 09:19:16;;;;;;;;;;;;;;;23.92;26.66;101237.56;104816;1091;78087;-59
2021/06/02 09:21:22;;;;;;;;;;;;;;;23.73;27.30;101243.64;104682;1093;77265;-64
2021/06/02 09:23:36;;;;;;;;;;;;;;;23.44;27.19;101231.91;104784;1093;78027;-64
2021/06/02 09:25:41;;;;;;;;;;;;;;;23.06;27.58;101234.61;104847;1093;78034;-64
2021/06/02 09:27:49;;;;;;;;;;;;;;;23.10;27.89;101239.35;104815;1092;78204;-58
2021/06/02 09:29:56;;;;;;;;;;;;;;;23.22;27.79;101236.52;104805;1091;78309;-59
2021/06/02 09:32:01;;;;;;;;;;;;;;;23.36;27.80;101232.31;104825;1093;77625;-58
2021/06/02 09:34:15;;;;;;;;;;;;;;;23.36;27.18;101229.56;104804;1093;79495;-58
2021/06/02 09:36:27;;;;;;;;;;;;;;;23.16;27.29;101238.35;104846;1092;77433;-63
2021/06/02 09:38:36;;;;;;;;;;;;;;;23.11;27.82;101235.52;104800;1092;77993;-59
2021/06/02 09:40:54;;;;;;;;;;;;;;;23.29;27.95;101231.67;104812;1093;76864;-59
2021/06/02 09:43:03;;;;;;;;;;;;;;;23.46;27.54;101224.22;104818;1093;77489;-60
2021/06/02 09:45:13;;;;;;;;;;;;;;;23.54;28.22;101228.48;104821;1093;77831;-60
2021/06/02 09:47:18;;;;;;;;;;;;;;;23.55;27.63;101221.86;104828;1093;77690;-59
2021/06/02 09:49:23;;;;;;;;;;;;;;;23.63;27.98;101219.50;104794;1093;78279;-59
2021/06/02 09:51:36;;;;;;;;;;;;;;;23.87;28.13;101228.38;104837;1093;78291;-69
2021/06/02 09:53:55;;;;;;;;;;;;;;;23.55;27.83;101227.38;104845;1093;79733;-68
2021/06/02 09:56:00;;;;;;;;;;;;;;;23.42;27.26;101226.67;104814;1093;77521;-66
2021/06/02 09:58:13;;;;;;;;;;;;;;;23.16;27.31;101226.48;104819;1093;77394;-68
2021/06/02 10:00:18;;;;;;;;;;;;;;;22.99;27.22;101226.49;104828;1093;77266;-69
2021/06/02 10:02:24;;;;;;;;;;;;;;;23.00;27.73;101222.66;104806;1093;78373;-65
2021/06/02 10:04:31;;;;;;;;;;;;;;;23.25;27.78;101239.61;104835;1093;77103;-66
2021/06/02 10:06:40;;;;;;;;;;;;;;;23.34;27.81;101224.31;104851;1093;78095;-59
2021/06/02 10:08:55;;;;;;;;;;;;;;;23.33;27.83;101228.14;104829;1093;77327;-59
2021/06/02 10:11:13;;;;;;;;;;;;;;;23.23;28.37;101219.73;104800;1093;77373;-59
2021/06/02 10:13:18;;;;;;;;;;;;;;;23.36;28.49;101226.80;104821;1093;78365;-60
2021/06/02 10:15:29;;;;;;;;;;;;;;;23.32;28.41;101225.66;104819;1093;77287;-60
2021/06/02 10:17:36;;;;;;;;;;;;;;;23.35;28.64;101214.09;104860;1093;77162;-69
2021/06/02 10:19:44;;;;;;;;;;;;;;;23.37;28.25;101231.24;104827;1093;76742;-70
2021/06/02 10:21:50;;;;;;;;;;;;;;;23.58;27.94;101224.11;104807;1093;76775;-61
2021/06/02 10:23:56;;;;;;;;;;;;;;;23.78;27.50;101227.15;104837;1093;77921;-61
2021/06/02 10:26:02;;;;;;;;;;;;;;;23.96;27.49;101222.14;104819;1093;77932;-70
2021/06/02 10:28:07;;;;;;;;;;;;;;;24.07;27.74;101223.09;104783;1092;78009;-70
2021/06/02 10:30:15;;;;;;;;;;;;;;;23.97;28.12;101222.98;104804;1093;79863;-71
2021/06/02 10:32:21;;;;;;;;;;;;;;;24.00;27.47;101222.47;104808;1093;77625;-61
2021/06/02 10:34:26;;;;;;;;;;;;;;;23.81;27.09;101224.72;104833;1093;77455;-62
2021/06/02 10:36:31;;;;;;;;;;;;;;;23.33;27.56;101213.52;104808;1093;78215;-61
2021/06/02 10:38:44;;;;;;;;;;;;;;;23.22;27.87;101219.97;104824;1093;77595;-63
2021/06/02 10:40:51;;;;;;;;;;;;;;;23.05;28.11;101224.66;104838;1093;77051;-64
2021/06/02 10:42:59;;;;;;;;;;;;;;;22.86;28.32;101224.08;104801;1093;76628;-65
2021/06/02 10:45:11;;;;;;;;;;;;;;;22.62;28.26;101220.61;104821;1093;78023;-65
2021/06/02 10:47:22;;;;;;;;;;;;;;;22.50;28.30;101222.59;104833;1093;78209;-59
2021/06/02 10:49:32;;;;;;;;;;;;;;;22.37;27.84;101222.06;104821;1093;78053;-59
2021/06/02 10:51:44;;;;;;;;;;;;;;;22.52;28.88;101217.69;104857;1092;76811;-59
2021/06/02 10:54:04;;;;;;;;;;;;;;;22.77;28.48;101207.13;104817;1092;78222;-58
2021/06/02 10:56:21;;;;;;;;;;;;;;;23.31;27.99;101202.75;104830;1092;77490;-59
2021/06/02 10:58:29;;;;;;;;;;;;;;;23.74;28.58;101207.50;104814;1092;76784;-59
2021/06/02 11:00:35;;;;;;;;;;;;;;;23.91;28.13;101202.76;104812;1093;77176;-59
2021/06/02 11:02:41;;;;;;;;;;;;;;;23.75;27.49;101205.59;104804;1093;79605;-59
2021/06/02 11:05:21;;;;;;;;;;;;;;;23.29;27.65;101198.59;104805;1093;77999;-59
2021/06/02 11:07:31;;;;;;;;;;;;;;;23.16;27.62;101212.70;104805;1093;77311;-59
2021/06/02 11:09:52;;;;;;;;;;;;;;;23.26;27.69;101199.09;104805;1093;77508;-59
2021/06/02 11:12:08;;;;;;;;;;;;;;;23.20;27.11;101205.61;104819;1092;77517;-59
2021/06/02 11:14:26;;;;;;;;;;;;;;;22.85;27.53;101211.41;104808;1093;77806;-60
2021/06/02 11:16:41;;;;;;;;;;;;;;;22.73;27.62;101216.98;104797;1093;77544;-58
2021/06/02 11:18:49;;;;;;;;;;;;;;;23.02;27.83;101214.97;104815;1093;77269;-60
2021/06/02 11:20:57;;;;;;;;;;;;;;;23.17;27.57;101206.11;104818;1093;78256;-61